Airport Name : Kansas City Intl

Other Name : Kansas City Intl

ICAO : KMCI

IATA : MCI

FAA : MCI

Latitude : 39.297606

Longitude : -94.713905

Country : United States

Local Date and Time : 20 Jul 2024 01:44

 

TAF (Terminal Aerodrome Forecast)

KMCI 200520Z 2006/2106 15005KT P6SM BKN250 FM201200 13005KT P6SM VCSH BKN100 FM201800 15005KT P6SM BKN050 FM202100 15005KT P6SM VCSH BKN050

 

METAR (METeorological Aerodrome Report)

KMCI 200553Z 14007KT 10SM SCT150 OVC200 20/14 A3008 RMK AO2 SLP175 T02000144 10256 20200 402720156 58000

KMCI 200453Z 13006KT 10SM SCT150 OVC200 21/14 A3009 RMK AO2 SLP178 T02060144

KMCI 200353Z 13008KT 10SM FEW150 OVC250 22/14 A3009 RMK AO2 SLP181 T02170144

KMCI 200253Z 12009KT 9SM FEW150 OVC250 22/14 A3008 RMK AO2 SLP177 T02220144 55001